Time;durP1;ratioP1;P1;durP2;ratioP2;P2;SDS_P1;SDS_P2;PMS_P1;PMS_P2;Temp;Humidity;BMP_temperature;BMP_pressure;BME280_temperature;BME280_humidity;BME280_pressure;Samples;Min_cycle;Max_cycle;Signal;HPM_P1;HPM_P2
2023/12/18 05:28:22;;;;;;;;;;;;;;;;;;6247319;23;19923;-73
2023/12/18 05:30:49;;;;;;;;;;;;;;;;;;6247112;23;19920;-73
2023/12/18 05:33:16;;;;;;;;;;;;;;;;;;6247260;23;19919;-73
2023/12/18 05:35:43;;;;;;;;;;;;;;;;;;6247399;23;19923;-73
2023/12/18 05:38:10;;;;;;;;;;;;;;;;;;6247877;23;19920;-73
2023/12/18 05:40:37;;;;;;;;;;;;;;;;;;6247614;23;19920;-72
2023/12/18 05:43:04;;;;;;;;;;;;;;;;;;6247007;23;20236;-71
2023/12/18 05:45:31;;;;;;;;;;;;;;;;;;6247377;23;19993;-72
2023/12/18 05:47:58;;;;;;;;;;;;;;;;;;6247478;23;19926;-72
2023/12/18 05:50:25;;;;;;;;;;;;;;;;;;6247344;23;20251;-72
2023/12/18 05:52:51;;;;;;;;;;;;;;;;;;6247505;23;19923;-72
2023/12/18 05:55:18;;;;;;;;;;;;;;;;;;6247334;23;19920;-73
2023/12/18 05:57:45;;;;;;;;;;;;;;;;;;6247325;23;19927;-73
2023/12/18 06:00:12;;;;;;;;;;;;;;;;;;6247324;23;20262;-72
2023/12/18 06:02:39;;;;;;;;;;;;;;;;;;6247997;23;19938;-73
2023/12/18 06:05:06;;;;;;;;;;;;;;;;;;6246746;23;20278;-72
2023/12/18 06:07:33;;;;;;;;;;;;;;;;;;6247444;23;19923;-72
2023/12/18 06:10:00;;;;;;;;;;;;;;;;;;6246791;23;20305;-72
2023/12/18 06:12:27;;;;;;;;;;;;;;;;;;6247123;23;19926;-72
2023/12/18 06:14:53;;;;;;;;;;;;;;;;;;6246620;23;20343;-73
2023/12/18 06:17:21;;;;;;;;;;;;;;;;;;6247075;23;19928;-72
2023/12/18 06:19:48;;;;;;;;;;;;;;;;;;6247113;23;19920;-73
2023/12/18 06:22:15;;;;;;;;;;;;;;;;;;6247028;23;19923;-71
2023/12/18 06:24:42;;;;;;;;;;;;;;;;;;6246842;23;19920;-71
2023/12/18 06:27:09;;;;;;;;;;;;;;;;;;6246806;23;19920;-72
2023/12/18 06:29:36;;;;;;;;;;;;;;;;;;6247413;23;19919;-71
2023/12/18 06:32:03;;;;;;;;;;;;;;;;;;6247119;23;19924;-71
2023/12/18 06:34:29;;;;;;;;;;;;;;;;;;6246845;23;19926;-71
2023/12/18 06:36:56;;;;;;;;;;;;;;;;;;6246816;23;19920;-71
2023/12/18 06:39:23;;;;;;;;;;;;;;;;;;6246863;23;19931;-71
2023/12/18 06:41:50;;;;;;;;;;;;;;;;;;6246965;23;19919;-71
2023/12/18 06:44:17;;;;;;;;;;;;;;;;;;6246701;23;19973;-71
2023/12/18 06:46:44;;;;;;;;;;;;;;;;;;6246846;23;19921;-71
2023/12/18 06:49:11;;;;;;;;;;;;;;;;;;6246975;23;19927;-71
2023/12/18 06:51:38;;;;;;;;;;;;;;;;;;6247268;23;19947;-71
2023/12/18 06:54:05;;;;;;;;;;;;;;;;;;6246802;23;19926;-71
2023/12/18 06:56:32;;;;;;;;;;;;;;;;;;6246548;23;19920;-71
2023/12/18 06:58:59;;;;;;;;;;;;;;;;;;6246671;23;19997;-71
2023/12/18 07:01:26;;;;;;;;;;;;;;;;;;6246936;23;19924;-71
2023/12/18 07:03:53;;;;;;;;;;;;;;;;;;6246617;23;20243;-71
2023/12/18 07:06:20;;;;;;;;;;;;;;;;;;6246429;23;19920;-71
2023/12/18 07:08:47;;;;;;;;;;;;;;;;;;6246355;23;20255;-71
2023/12/18 07:11:13;;;;;;;;;;;;;;;;;;6246371;23;19931;-71
2023/12/18 07:13:40;;;;;;;;;;;;;;;;;;6247476;23;19919;-71
2023/12/18 07:16:07;;;;;;;;;;;;;;;;;;6248448;23;20302;-71
2023/12/18 07:18:34;;;;;;;;;;;;;;;;;;6248230;23;19920;-71
2023/12/18 07:21:02;;;;;;;;;;;;;;;;;;6248263;23;19986;-71
2023/12/18 07:23:29;;;;;;;;;;;;;;;;;;6247804;23;19923;-71
2023/12/18 07:25:56;;;;;;;;;;;;;;;;;;6246953;23;19920;-71
2023/12/18 07:28:23;;;;;;;;;;;;;;;;;;6247779;23;19966;-71
2023/12/18 07:30:50;;;;;;;;;;;;;;;;;;6247300;23;19919;-71
2023/12/18 07:33:17;;;;;;;;;;;;;;;;;;6248157;23;19920;-71
2023/12/18 07:35:44;;;;;;;;;;;;;;;;;;6247293;23;20351;-71
2023/12/18 07:38:11;;;;;;;;;;;;;;;;;;6248667;23;19920;-71
2023/12/18 07:40:38;;;;;;;;;;;;;;;;;;6247510;23;19919;-71
2023/12/18 07:43:05;;;;;;;;;;;;;;;;;;6246605;23;19975;-71
2023/12/18 07:45:32;;;;;;;;;;;;;;;;;;6246682;23;19942;-71
2023/12/18 07:47:59;;;;;;;;;;;;;;;;;;6246456;23;19920;-71
2023/12/18 07:50:25;;;;;;;;;;;;;;;;;;6246051;23;20347;-71
2023/12/18 07:52:52;;;;;;;;;;;;;;;;;;6246371;23;19938;-71
2023/12/18 07:55:19;;;;;;;;;;;;;;;;;;6248425;23;19972;-72
2023/12/18 07:57:46;;;;;;;;;;;;;;;;;;6248073;23;19947;-72
2023/12/18 08:00:13;;;;;;;;;;;;;;;;;;6248467;23;19920;-72
2023/12/18 08:02:40;;;;;;;;;;;;;;;;;;6248338;23;19958;-72
2023/12/18 08:05:07;;;;;;;;;;;;;;;;;;6249224;23;19995;-72
2023/12/18 08:07:34;;;;;;;;;;;;;;;;;;6250406;23;20295;-72
2023/12/18 08:10:01;;;;;;;;;;;;;;;;;;6251164;23;19920;-72
2023/12/18 08:12:28;;;;;;;;;;;;;;;;;;6253436;23;19966;-71
2023/12/18 08:14:55;;;;;;;;;;;;;;;;;;6254441;23;19927;-72
2023/12/18 08:17:23;;;;;;;;;;;1.30;99.90;;;;;;6253501;23;19920;-73
2023/12/18 08:19:50;;;;;;;;;;;-0.30;99.90;;;;;;6252908;23;19924;-71
2023/12/18 08:22:17;;;;;;;;;;;0.10;99.90;;;;;;6251091;23;20327;-71
2023/12/18 08:24:43;;;;;;;;;;;0.50;99.90;;;;;;6250501;23;20361;-72
2023/12/18 08:27:10;;;;;;;;;;;;;;;;;;6251515;23;19927;-72
2023/12/18 08:29:37;;;;;;;;;;;;;;;;;;6253286;23;19919;-72
2023/12/18 08:32:04;;;;;;;;;;;;;;;;;;6252252;23;19930;-72
2023/12/18 08:34:31;;;;;;;;;;;;;;;;;;6252532;23;19924;-72
2023/12/18 08:36:58;;;;;;;;;;;;;;;;;;6252007;23;20236;-71
2023/12/18 08:39:25;;;;;;;;;;;;;;;;;;6249083;23;19920;-71
2023/12/18 08:41:52;;;;;;;;;;;;;;;;;;6247732;23;20255;-72
2023/12/18 08:44:19;;;;;;;;;;;;;;;;;;6248037;23;19920;-72
2023/12/18 08:46:47;;;;;;;;;;;;;;;;;;6248070;23;19947;-72
2023/12/18 08:49:14;;;;;;;;;;;;;;;;;;6248051;23;19993;-72
2023/12/18 08:51:40;;;;;;;;;;;;;;;;;;6247899;23;19920;-72
2023/12/18 08:54:07;;;;;;;;;;;;;;;;;;6247980;23;19920;-72
2023/12/18 08:56:34;;;;;;;;;;;;;;;;;;6247841;23;19970;-72
2023/12/18 08:59:01;;;;;;;;;;;;;;;;;;6247905;23;19920;-72
2023/12/18 09:01:28;;;;;;;;;;;;;;;;;;6248186;23;19919;-72
2023/12/18 09:03:55;;;;;;;;;;;;;;;;;;6247956;23;19975;-72
2023/12/18 09:06:22;;;;;;;;;;;;;;;;;;6247150;23;19920;-72
2023/12/18 09:08:49;;;;;;;;;;;;;;;;;;6247838;23;19927;-72
2023/12/18 09:11:16;;;;;;;;;;;;;;;;;;6248306;23;19942;-73
2023/12/18 09:13:42;;;;;;;;;;;;;;;;;;6247908;23;19927;-72
2023/12/18 09:16:09;;;;;;;;;;;;;;;;;;6247792;23;19942;-72
2023/12/18 09:18:36;;;;;;;;;;;;;;;;;;6247767;23;19920;-72
2023/12/18 09:21:03;;;;;;;;;;;;;;;;;;6250009;23;20370;-72
2023/12/18 09:23:30;;;;;;;;;;;;;;;;;;6248088;23;19927;-73
2023/12/18 09:25:57;;;;;;;;;;;;;;;;;;6247634;23;19919;-73
2023/12/18 09:28:24;;;;;;;;;;;;;;;;;;6247335;23;19919;-73
2023/12/18 09:30:51;;;;;;;;;;;;;;;;;;6248653;23;19926;-73
2023/12/18 09:33:18;;;;;;;;;;;;;;;;;;6247888;23;19942;-73
2023/12/18 09:35:44;;;;;;;;;;;;;;;;;;6247683;23;19923;-73
2023/12/18 09:38:11;;;;;;;;;;;;;;;;;;6247675;23;19942;-73
2023/12/18 09:40:38;;;;;;;;;;;;;;;;;;6247915;23;19919;-73
2023/12/18 09:43:05;;;;;;;;;;;;;;;;;;6247687;23;19943;-73
2023/12/18 09:45:32;;;;;;;;;;;;;;;;;;6247505;23;19926;-73
2023/12/18 09:47:59;;;;;;;;;;;;;;;;;;6247140;23;20343;-74
2023/12/18 09:50:26;;;;;;;;;;;;;;;;;;6247850;23;19919;-74
2023/12/18 09:52:53;;;;;;;;;;;;;;;;;;6247461;23;19941;-71
2023/12/18 09:55:20;;;;;;;;;;;;;;;;;;6247410;23;19919;-72
2023/12/18 09:57:48;;;;;;;;;;;;;;;;;;6247622;23;19943;-73
2023/12/18 10:00:15;;;;;;;;;;;;;;;;;;6247261;23;19919;-73
2023/12/18 10:02:42;;;;;;;;;;;;;;;;;;6247382;23;19926;-72
2023/12/18 10:05:10;;;;;;;;;;;;;;;;;;6247446;23;19919;-72
2023/12/18 10:07:37;;;;;;;;;;;;;;;;;;6247714;23;20298;-72
2023/12/18 10:10:04;;;;;;;;;;;;;;;;;;6247289;23;19926;-71
2023/12/18 10:12:31;;;;;;;;;;;;;;;;;;6246959;23;19920;-72
2023/12/18 10:14:58;;;;;;;;;;;;;;;;;;6247726;23;19927;-72
2023/12/18 10:17:24;;;;;;;;;;;;;;;;;;6247640;23;19923;-72
2023/12/18 10:19:51;;;;;;;;;;;;;;;;;;6246852;23;20300;-72
2023/12/18 10:22:18;;;;;;;;;;;;;;;;;;6247213;23;19919;-72
2023/12/18 10:24:45;;;;;;;;;;;;;;;;;;6247056;23;19923;-72
2023/12/18 10:27:12;;;;;;;;;;;;;;;;;;6247054;23;19919;-72
2023/12/18 10:29:39;;;;;;;;;;;;;;;;;;6247161;23;19920;-72
2023/12/18 10:32:06;;;;;;;;;;;;;;;;;;6246666;23;20312;-72
2023/12/18 10:34:36;;;;;;;;;;;;;;;;;;6246805;23;20240;-72
2023/12/18 10:37:03;;;;;;;;;;;;;;;;;;6246994;23;19920;-72
2023/12/18 10:39:30;;;;;;;;;;;;;;;;;;6246927;23;19926;-72
2023/12/18 10:41:58;;;;;;;;;;;;;;;;;;6246575;23;19920;-72
2023/12/18 10:44:25;;;;;;;;;;;;;;;;;;6246772;23;19973;-72
2023/12/18 10:46:52;;;;;;;;;;;;;;;;;;6246939;23;19919;-72
2023/12/18 10:49:19;;;;;;;;;;;;;;;;;;6246485;23;20259;-72
2023/12/18 10:51:46;;;;;;;;;;;;;;;;;;6246797;23;19926;-72
2023/12/18 10:54:12;;;;;;;;;;;;;;;;;;6246518;23;20378;-71
2023/12/18 10:56:39;;;;;;;;;;;;;;;;;;6246799;23;19919;-71
2023/12/18 10:59:06;;;;;;;;;;;;;;;;;;6246759;23;19920;-71
2023/12/18 11:01:34;;;;;;;;;;;;;;;;;;6246809;23;19927;-71
2023/12/18 11:04:01;;;;;;;;;;;;;;;;;;6246771;23;19998;-71
2023/12/18 11:06:28;;;;;;;;;;;;;;;;;;6246833;23;19924;-71
2023/12/18 11:08:54;;;;;;;;;;;;;;;;;;6246771;23;19920;-71
2023/12/18 11:11:21;;;;;;;;;;;;;;;;;;6246268;23;20267;-71
2023/12/18 11:13:47;;;;;;;;;;;;;;;;;;6246551;23;19920;-71
2023/12/18 11:16:14;;;;;;;;;;;;;;;;;;6246669;23;19922;-72
2023/12/18 11:18:41;;;;;;;;;;;;;;;;;;6246687;23;19927;-71
2023/12/18 11:21:08;;;;;;;;;;;;;;;;;;6246525;23;19920;-71
2023/12/18 11:23:35;;;;;;;;;;;;;;;;;;6246695;23;19932;-71
2023/12/18 11:26:02;;;;;;;;;;;;;;;;;;6246519;23;19919;-71
2023/12/18 11:28:29;;;;;;;;;;;;;;;;;;6246074;23;19920;-71
2023/12/18 11:30:55;;;;;;;;;;;;;;;;;;6246518;23;19923;-70
2023/12/18 11:33:22;;;;;;;;;;;;;;;;;;6246490;23;19920;-70
2023/12/18 11:35:49;;;;;;;;;;;;;;;;;;6246725;23;19920;-70
2023/12/18 11:38:16;;;;;;;;;;;;;;;;;;6245040;22;19946;-69
2023/12/18 11:40:43;;;;;;;;;;;;;;;;;;6246622;23;19919;-69
2023/12/18 11:43:10;;;;;;;;;;;;;;;;;;6246676;23;19926;-69
2023/12/18 11:45:36;;;;;;;;;;;;;;;;;;6246193;23;19926;-69
2023/12/18 11:48:03;;;;;;;;;;;;;;;;;;6246657;23;19916;-69
2023/12/18 11:50:30;;;;;;;;;;;;;;;;;;6247151;23;19919;-69
2023/12/18 11:52:57;;;;;;;;;;;;;;;;;;6246536;23;19919;-69
2023/12/18 11:55:24;;;;;;;;;;;;;;;;;;6246551;23;20262;-70
2023/12/18 11:57:51;;;;;;;;;;;;;;;;;;6246461;23;19919;-70
2023/12/18 12:00:18;;;;;;;;;;;;;;;;;;6246597;23;20263;-70
2023/12/18 12:02:45;;;;;;;;;;;;;;;;;;6246603;23;20258;-70
2023/12/18 12:05:12;;;;;;;;;;;;;;;;;;6246501;23;19919;-70
2023/12/18 12:07:39;;;;;;;;;;;;;;;;;;6246967;23;19920;-69
2023/12/18 12:10:06;;;;;;;;;;;;;;;;;;6246183;23;19974;-70
2023/12/18 12:12:33;;;;;;;;;;;;;;;;;;6246390;23;19919;-70
2023/12/18 12:15:00;;;;;;;;;;;;;;;;;;6246177;23;20351;-70
2023/12/18 12:17:27;;;;;;;;;;;;;;;;;;6246566;23;19920;-70
2023/12/18 12:19:54;;;;;;;;;;;;;;;;;;6246548;23;19927;-71
2023/12/18 12:22:20;;;;;;;;;;;;;;;;;;6246480;23;19942;-71
2023/12/18 12:24:47;;;;;;;;;;;;;;;;;;6246761;23;19923;-70
2023/12/18 12:27:14;;;;;;;;;;;;;;;;;;6246595;23;19920;-71
2023/12/18 12:29:41;;;;;;;;;;;;;;;;;;6246357;23;19920;-70
2023/12/18 12:32:08;;;;;;;;;;;;;;;;;;6246426;23;19920;-74
2023/12/18 12:34:35;;;;;;;;;;;;;;;;;;6247526;23;19942;-70
2023/12/18 12:37:02;;;;;;;;;;;;;;;;;;6246676;23;19923;-70
2023/12/18 12:39:29;;;;;;;;;;;;;;;;;;6246728;23;20379;-70
2023/12/18 12:41:56;;;;;;;;;;;;;;;;;;6248254;23;19920;-71
2023/12/18 12:44:23;;;;;;;;;;;;;;;;;;6248655;23;19927;-70
2023/12/18 12:46:50;;;;;;;;;;;;;;;;;;6248301;23;19924;-69
2023/12/18 12:49:17;;;;;;;;;;;;;;;;;;6248482;23;19924;-70
2023/12/18 12:51:43;;;;;;;;;;;;;;;;;;6248672;23;19919;-70
2023/12/18 12:54:11;;;;;;;;;;;;;;;;;;6248607;23;20251;-71
2023/12/18 12:56:38;;;;;;;;;;;;;;;;;;6248211;23;20297;-71
2023/12/18 12:59:05;;;;;;;;;;;;;;;;;;6248912;23;19927;-72
2023/12/18 13:01:32;;;;;;;;;;;;;;;;;;6252211;23;19920;-71
2023/12/18 13:03:58;;;;;;;;;;;;;;;;;;6252716;23;19920;-71
2023/12/18 13:06:25;;;;;;;;;;;;;;;;;;6252674;23;19920;-71
2023/12/18 13:08:52;;;;;;;;;;;;;;;;;;6250136;23;19919;-72
2023/12/18 13:11:20;;;;;;;;;;;;;;;;;;6248385;23;19920;-72
2023/12/18 13:13:47;;;;;;;;;;;;;;;;;;6247981;23;20366;-72
2023/12/18 13:16:14;;;;;;;;;;;;;;;;;;6248178;23;19926;-72
2023/12/18 13:18:41;;;;;;;;;;;;;;;;;;6247791;23;20339;-72
2023/12/18 13:21:08;;;;;;;;;;;;;;;;;;6248357;23;19924;-73
2023/12/18 13:23:37;;;;;;;;;;;;;;;;;;6248762;23;19942;-71
2023/12/18 13:26:05;;;;;;;;;;;;;;;;;;6248444;23;19943;-71
2023/12/18 13:28:32;;;;;;;;;;;;;;;;;;6248167;23;19990;-71
2023/12/18 13:30:59;;;;;;;;;;;;;;;;;;6248189;23;19919;-70
2023/12/18 13:33:26;;;;;;;;;;;;;;;;;;6247467;23;20362;-70
2023/12/18 13:35:52;;;;;;;;;;;;;;;;;;6248021;23;19929;-70
2023/12/18 13:38:19;;;;;;;;;;;;;;;;;;6247229;23;19920;-70
2023/12/18 13:40:46;;;;;;;;;;;;;;;;;;6247768;23;19920;-69
2023/12/18 13:43:13;;;;;;;;;;;;;;;;;;6247908;23;19919;-69
2023/12/18 13:45:40;;;;;;;;;;;;;;;;;;6247865;23;20262;-70
2023/12/18 13:48:08;;;;;;;;;;;;;;;;;;6247422;23;19974;-70
2023/12/18 13:50:36;;;;;;;;;;;;;;;;;;6247593;23;19919;-70
2023/12/18 13:53:03;;;;;;;;;;;;;;;;;;6247234;23;19926;-70
2023/12/18 15:10:48;;;;;;;;;;;;;;;;;;6241106;22;20006;-68
2023/12/18 15:13:15;;;;;;;;;;;;;;;;;;6247064;23;20251;-68
2023/12/18 15:15:42;;;;;;;;;;;;;;;;;;6248407;23;19926;-68
2023/12/18 15:18:09;;;;;;;;;;;;;;;;;;6248464;23;19920;-67
2023/12/18 15:20:36;;;;;;;;;;;;;;;;;;6248591;23;19930;-68
2023/12/18 15:23:03;;;;;;;;;;;;;;;;;;6248768;23;19920;-68
2023/12/18 15:25:30;;;;;;;;;;;;;;;;;;6248197;23;19926;-68
2023/12/18 15:27:57;;;;;;;;;;;;;;;;;;6249372;23;20003;-68
2023/12/18 15:30:24;;;;;;;;;;;;;;;;;;6248605;23;19923;-67
2023/12/18 15:32:51;;;;;;;;;;;;;;;;;;6248786;23;20276;-67
2023/12/18 15:35:18;;;;;;;;;;;;;;;;;;6248170;23;19950;-67
2023/12/18 15:37:45;;;;;;;;;;;;;;;;;;6248995;23;19920;-71
2023/12/18 15:40:12;;;;;;;;;;;;;;;;;;6249619;23;19927;-70
2023/12/18 15:42:40;;;;;;;;;;;;;;;;;;6249001;23;19919;-72
2023/12/18 15:45:06;;;;;;;;;;;;;;;;;;6249165;23;19977;-72
2023/12/18 15:47:33;;;;;;;;;;;;;;;;;;6249270;23;19947;-71
2023/12/18 15:50:00;;;;;;;;;;;;;;;;;;6249101;23;19920;-72
2023/12/18 15:52:27;;;;;;;;;;;;;;;;;;6249349;23;19919;-71
2023/12/18 15:54:54;;;;;;;;;;;;;;;;;;6248948;23;19998;-70
2023/12/18 15:57:23;;;;;;;;;;;;;;;;;;6246481;23;20271;-70
2023/12/18 15:59:50;;;;;;;;;;;;;;;;;;6246662;23;19969;-70
2023/12/18 16:02:17;;;;;;;;;;;;;;;;;;6247008;23;19969;-71
2023/12/18 16:04:44;;;;;;;;;;;;;;;;;;6247089;23;20220;-71
2023/12/18 16:07:11;;;;;;;;;;;;;;;;;;6247040;23;19919;-72
2023/12/18 16:09:38;;;;;;;;;;;;;;;;;;6246544;23;19927;-72
2023/12/18 16:12:05;;;;;;;;;;;;;;;;;;6246971;23;19919;-72
2023/12/18 16:14:32;;;;;;;;;;;;;;;;;;6247293;23;20406;-72
2023/12/18 16:16:59;;;;;;;;;;;;;;;;;;6248994;23;19926;-72
2023/12/18 16:19:26;;;;;;;;;;;;;;;;;;6248682;23;19978;-72
2023/12/18 16:21:53;;;;;;;;;;;;;;;;;;6248180;23;20359;-73
2023/12/18 16:24:20;;;;;;;;;;;;;;;;;;6248624;23;19919;-72
2023/12/18 16:26:47;;;;;;;;;;;;;;;;;;6248570;23;19930;-72
2023/12/18 16:29:13;;;;;;;;;;;;;;;;;;6248408;23;19919;-72
2023/12/18 16:31:40;;;;;;;;;;;;;;;;;;6248846;23;20228;-72
2023/12/18 16:34:07;;;;;;;;;;;;;;;;;;6248910;23;19923;-73
2023/12/18 16:36:34;;;;;;;;;;;;;;;;;;6248974;23;19926;-72
2023/12/18 16:39:01;;;;;;;;;;;;;;;;;;6249045;23;19920;-71
2023/12/18 16:41:28;;;;;;;;;;;;;;;;;;6248614;23;19974;-71
2023/12/18 16:43:55;;;;;;;;;;;;;;;;;;6248405;23;19919;-72
2023/12/18 16:46:22;;;;;;;;;;;;;;;;;;6248253;23;19920;-70
2023/12/18 16:48:49;;;;;;;;;;;;;;;;;;6249181;23;20251;-71
2023/12/18 16:51:16;;;;;;;;;;;;;;;;;;6248304;23;19919;-70
2023/12/18 16:53:43;;;;;;;;;;;;;;;;;;6248183;23;19919;-72
2023/12/18 16:56:10;;;;;;;;;;;;;;;;;;6248714;23;19919;-73
2023/12/18 16:58:37;;;;;;;;;;;;;;;;;;6248241;23;19924;-73
2023/12/18 17:01:04;;;;;;;;;;;;;;;;;;6248132;23;20357;-73
2023/12/18 17:03:31;;;;;;;;;;;;;;;;;;6248964;23;19920;-69
2023/12/18 17:05:58;;;;;;;;;;;;;;;;;;6248278;23;20335;-69
2023/12/18 17:08:25;;;;;;;;;;;;;;;;;;6248797;23;19955;-69
2023/12/18 17:10:52;;;;;;;;;;;;;;;;;;6247859;23;19926;-69
2023/12/18 17:13:19;;;;;;;;;;;;;;;;;;6248178;23;19919;-69
2023/12/18 17:15:46;;;;;;;;;;;;;;;;;;6248223;23;20034;-69
2023/12/18 17:18:13;;;;;;;;;;;;;;;;;;6248219;23;19942;-69
2023/12/18 17:20:39;;;;;;;;;;;;;;;;;;6248058;23;19931;-69
2023/12/18 17:23:07;;;;;;;;;;;;;;;;;;6247772;23;20347;-68
2023/12/18 17:25:34;;;;;;;;;;;;;;;;;;6247937;23;19926;-68
2023/12/18 17:28:01;;;;;;;;;;;;;;;;;;6247677;23;19919;-68
2023/12/18 17:30:28;;;;;;;;;;;;;;;;;;6247968;23;19923;-68
2023/12/18 17:32:55;;;;;;;;;;;;;;;;;;6247825;23;19927;-68
2023/12/18 17:35:21;;;;;;;;;;;;;;;;;;6247543;23;20365;-68
2023/12/18 17:37:48;;;;;;;;;;;;;;;;;;6247914;23;19919;-69
2023/12/18 17:40:15;;;;;;;;;;;;;;;;;;6247717;23;19920;-69
2023/12/18 17:42:42;;;;;;;;;;;;;;;;;;6248411;23;19920;-69
2023/12/18 17:45:10;;;;;;;;;;;;;;;;;;6247954;23;19919;-69
2023/12/18 17:47:37;;;;;;;;;;;;;;;;;;6248095;23;19986;-69
2023/12/18 17:50:04;;;;;;;;;;;;;;;;;;6247853;23;19920;-68
2023/12/18 17:52:31;;;;;;;;;;;;;;;;;;6248144;23;19920;-68
2023/12/18 17:54:58;;;;;;;;;;;;;;;;;;6248203;23;19924;-69
2023/12/18 17:57:28;;;;;;;;;;;;;;;;;;6247921;23;19942;-69
2023/12/18 17:59:55;;;;;;;;;;;;;;;;;;6248070;23;19919;-69
2023/12/18 18:02:23;;;;;;;;;;;;;;;;;;6248600;23;19919;-73
2023/12/18 18:04:50;;;;;;;;;;;;;;;;;;6248701;23;20370;-69
2023/12/18 18:07:17;;;;;;;;;;;;;;;;;;6248802;23;19919;-72
2023/12/18 18:09:44;;;;;;;;;;;;;;;;;;6248693;23;19920;-71
2023/12/18 18:12:11;;;;;;;;;;;;;;;;;;6248421;23;20354;-71
2023/12/18 18:14:38;;;;;;;;;;;;;;;;;;6248742;23;19930;-72
2023/12/18 18:17:05;;;;;;;;;;;;;;;;;;6249884;23;19919;-69
2023/12/18 18:19:32;;;;;;;;;;;;;;;;;;6249481;23;19919;-71
2023/12/18 18:22:00;;;;;;;;;;;;;;;;;;6251081;23;19926;-70
2023/12/18 18:24:27;;;;;;;;;;;;;;;;;;6249168;23;20306;-68
2023/12/18 18:26:55;;;;;;;;;;;;;;;;;;6249856;23;19920;-70
2023/12/18 18:29:22;;;;;;;;;;;;;;;;;;6249998;23;19943;-69
2023/12/18 18:31:50;;;;;;;;;;;;;;;;;;6248539;23;19950;-70
2023/12/18 18:34:18;;;;;;;;;;;;;;;;;;6248347;23;19920;-69
2023/12/18 18:36:45;;;;;;;;;;;;;;;;;;6248345;23;19942;-70
2023/12/18 18:39:13;;;;;;;;;;;;;;;;;;6248346;23;19994;-70
2023/12/18 18:41:40;;;;;;;;;;;;;;;;;;6248740;23;19926;-73
2023/12/18 18:44:07;;;;;;;;;;;;;;;;;;6248249;23;19998;-72
2023/12/18 18:46:35;;;;;;;;;;;;;;;;;;6249269;23;19978;-71
2023/12/18 18:49:03;;;;;;;;;;;;;;;;;;6249479;23;19998;-72
2023/12/18 18:51:32;;;;;;;;;;;;;;;;;;6248168;23;20339;-72
2023/12/18 18:53:59;;;;;;;;;;;;;;;;;;6248513;23;19970;-73
2023/12/18 18:56:26;;;;;;;;;;;;;;;;;;6248779;23;19919;-74
2023/12/18 18:58:53;;;;;;;;;;;;;;;;;;6249442;23;19923;-72
2023/12/18 19:01:20;;;;;;;;;;;;;;;;;;6249111;23;19927;-72
2023/12/18 19:03:47;;;;;;;;;;;;;;;;;;6248792;23;19939;-72
2023/12/18 19:06:14;;;;;;;;;;;;;;;;;;6248352;23;19926;-74
2023/12/18 19:08:41;;;;;;;;;;;;;;;;;;6248428;23;20239;-74
2023/12/18 19:11:08;;;;;;;;;;;;;;;;;;6248512;23;20016;-72
2023/12/18 19:13:35;;;;;;;;;;;;;;;;;;6248863;23;20002;-69
2023/12/18 19:16:02;;;;;;;;;;;;;;;;;;6248672;23;19998;-71
2023/12/18 19:18:29;;;;;;;;;;;;;;;;;;6248369;23;19923;-71
2023/12/18 19:20:56;;;;;;;;;;;;;;;;;;6248065;23;19974;-71
2023/12/18 19:23:22;;;;;;;;;;;;;;;;;;6247691;23;20251;-72
2023/12/18 19:25:49;;;;;;;;;;;;;;;;;;6248230;23;19927;-74
2023/12/18 19:28:19;;;;;;;;;;;;;;;;;;6247243;23;21226;-72
2023/12/18 19:30:46;;;;;;;;;;;;;;;;;;6247880;23;19919;-73
2023/12/18 19:33:12;;;;;;;;;;;;;;;;;;6248489;23;19919;-71
2023/12/18 19:35:41;;;;;;;;;;;;;;;;;;6248188;23;19927;-71
2023/12/18 19:38:08;;;;;;;;;;;;;;;;;;6247963;23;19924;-71
2023/12/18 19:40:36;;;;;;;;;;;;;;;;;;6247382;23;20339;-71
2023/12/18 19:43:03;;;;;;;;;;;;;;;;;;6248772;23;19919;-71
2023/12/18 19:45:30;;;;;;;;;;;;;;;;;;6247585;23;20343;-71
2023/12/18 19:47:57;;;;;;;;;;;;;;;;;;6248084;23;19988;-70
2023/12/18 19:50:24;;;;;;;;;;;;;;;;;;6248227;23;19919;-72
2023/12/18 19:52:51;;;;;;;;;;;;;;;;;;6249538;23;19919;-72
2023/12/18 19:55:18;;;;;;;;;;;;;;;;;;6249206;23;19919;-71
2023/12/18 19:57:45;;;;;;;;;;;;;;;;;;6249302;23;19926;-72
2023/12/18 20:00:14;;;;;;;;;;;;;;;;;;6249289;23;19926;-72
2023/12/18 20:02:41;;;;;;;;;;;;;;;;;;6249650;23;19997;-72
2023/12/18 20:05:08;;;;;;;;;;;;;;;;;;6249168;23;19927;-72
2023/12/18 20:07:35;;;;;;;;;;;;;;;;;;6249102;23;20255;-70
2023/12/18 20:10:02;;;;;;;;;;;;;;;;;;6249280;23;19919;-71
2023/12/18 20:12:29;;;;;;;;;;;;;;;;;;6249883;23;19920;-71
2023/12/18 20:14:56;;;;;;;;;;;;;;;;;;6248968;23;19920;-72
2023/12/18 20:17:24;;;;;;;;;;;;;;;;;;6249316;23;19975;-72
2023/12/18 20:19:51;;;;;;;;;;;;;;;;;;6249647;23;19919;-72
2023/12/18 20:22:18;;;;;;;;;;;;;;;;;;6249956;23;19923;-72
2023/12/18 20:24:45;;;;;;;;;;;;;;;;;;6249715;23;19919;-72
2023/12/18 20:27:12;;;;;;;;;;;;;;;;;;6249525;23;20002;-72
2023/12/18 20:29:39;;;;;;;;;;;;;;;;;;6249221;23;20343;-72
2023/12/18 20:32:06;;;;;;;;;;;;;;;;;;6249768;23;20236;-71
2023/12/18 20:34:33;;;;;;;;;;;;;;;;;;6249578;23;19989;-72
2023/12/18 20:37:00;;;;;;;;;;;;;;;;;;6249795;23;19926;-73
2023/12/18 20:39:27;;;;;;;;;;;;;;;;;;6249407;23;19926;-71
2023/12/18 20:41:55;;;;;;;;;;;;;;;;;;6249151;23;20348;-73
2023/12/18 20:44:22;;;;;;;;;;;;;;;;;;6249774;23;19955;-73
2023/12/18 20:46:49;;;;;;;;;;;;;;;;;;6249458;23;19919;-72
2023/12/18 20:49:16;;;;;;;;;;;;;;;;;;6250541;23;19919;-71
2023/12/18 20:51:43;;;;;;;;;;;;;;;;;;6249578;23;19987;-72
2023/12/18 20:54:10;;;;;;;;;;;;;;;;;;6249328;23;20246;-72
2023/12/18 20:56:37;;;;;;;;;;;;;;;;;;6250230;23;19926;-69
2023/12/18 20:59:05;;;;;;;;;;;;;;;;;;6249572;23;19927;-75
2023/12/18 21:01:32;;;;;;;;;;;;;;;;;;6250093;23;19994;-74
2023/12/18 21:03:59;;;;;;;;;;;;;;;;;;6249927;23;19923;-73
2023/12/18 21:06:26;;;;;;;;;;;;;;;;;;6249773;23;19919;-74
2023/12/18 21:08:53;;;;;;;;;;;;;;;;;;6249280;23;20247;-74
2023/12/18 21:11:20;;;;;;;;;;;;;;;;;;6248799;23;19927;-74
2023/12/18 21:13:47;;;;;;;;;;;;;;;;;;6248501;23;19919;-74
2023/12/18 21:16:15;;;;;;;;;;;;;;;;;;6248541;23;19919;-75
2023/12/18 21:18:42;;;;;;;;;;;;;;;;;;6248022;23;19920;-75
2023/12/18 21:21:09;;;;;;;;;;;;;;;;;;6248212;23;19923;-76
2023/12/18 21:23:36;;;;;;;;;;;;;;;;;;6248360;23;19931;-75
2023/12/18 21:26:03;;;;;;;;;;;;;;;;;;6248069;23;19920;-71
2023/12/18 21:28:30;;;;;;;;;;;;;;;;;;6248155;23;19966;-70
2023/12/18 21:30:57;;;;;;;;;;;;;;;;;;6247899;23;19919;-69
